createdAt,value
2018-12-09T00:00:38.970Z,8.70
2018-12-09T00:03:09.712Z,8.70
2018-12-09T00:05:40.496Z,8.70
2018-12-09T00:08:11.210Z,8.70
2018-12-09T00:10:39.914Z,8.60
2018-12-09T00:13:08.773Z,8.60
2018-12-09T00:15:39.665Z,8.60
2018-12-09T00:18:08.402Z,8.60
2018-12-09T00:20:37.189Z,8.60
2018-12-09T00:23:07.138Z,8.60
2018-12-09T00:25:35.922Z,8.70
2018-12-09T00:28:04.728Z,8.70
2018-12-09T00:30:33.559Z,8.70
2018-12-09T00:33:02.347Z,8.80
2018-12-09T00:35:31.078Z,8.80
2018-12-09T00:37:59.885Z,8.80
2018-12-09T00:40:29.763Z,8.80
2018-12-09T00:42:58.550Z,8.80
2018-12-09T00:45:27.346Z,8.70
2018-12-09T00:48:01.250Z,8.60
2018-12-09T00:50:30.046Z,8.50
2018-12-09T00:52:58.843Z,8.50
2018-12-09T00:55:27.611Z,8.50
2018-12-09T00:57:56.434Z,8.50
2018-12-09T01:00:25.213Z,8.40
2018-12-09T01:02:53.934Z,8.40
2018-12-09T01:05:22.708Z,8.40
2018-12-09T01:07:51.480Z,8.40
2018-12-09T01:10:20.206Z,8.40
2018-12-09T01:12:48.997Z,8.50
2018-12-09T01:15:17.838Z,8.50
2018-12-09T01:17:46.555Z,8.50
2018-12-09T01:20:15.371Z,8.60
2018-12-09T01:22:44.130Z,8.70
2018-12-09T01:25:12.920Z,8.80
2018-12-09T01:27:41.778Z,8.80
2018-12-09T01:30:10.609Z,8.80
2018-12-09T01:32:39.393Z,8.90
2018-12-09T01:35:08.255Z,8.90
2018-12-09T01:37:37.778Z,8.90
2018-12-09T01:40:06.726Z,8.90
2018-12-09T01:42:35.475Z,8.90
2018-12-09T01:45:04.399Z,8.90
2018-12-09T01:47:33.217Z,8.90
2018-12-09T01:50:03.050Z,8.80
2018-12-09T01:52:31.931Z,8.80
2018-12-09T01:55:00.656Z,8.80
2018-12-09T01:57:29.389Z,8.80
2018-12-09T01:59:58.182Z,8.80
2018-12-09T02:02:27.085Z,8.80
2018-12-09T02:04:55.898Z,8.80
2018-12-09T02:07:24.678Z,8.80
2018-12-09T02:09:53.956Z,8.80
2018-12-09T02:12:23.121Z,8.70
2018-12-09T02:14:51.902Z,8.80
2018-12-09T02:17:20.842Z,8.70
2018-12-09T02:19:49.732Z,8.70
2018-12-09T02:22:18.469Z,8.70
2018-12-09T02:24:47.306Z,8.70
2018-12-09T02:27:16.078Z,8.70
2018-12-09T02:29:44.903Z,8.70
2018-12-09T02:32:13.547Z,8.70
2018-12-09T02:34:51.574Z,8.70
2018-12-09T02:37:20.268Z,8.70
2018-12-09T02:39:49.124Z,8.60
2018-12-09T02:42:17.960Z,8.60
2018-12-09T02:44:47.758Z,8.60
2018-12-09T02:47:16.591Z,8.60
2018-12-09T02:49:45.345Z,8.60
2018-12-09T02:52:14.187Z,8.60
2018-12-09T02:54:43.034Z,8.60
2018-12-09T02:57:11.902Z,8.60
2018-12-09T02:59:40.765Z,8.60
2018-12-09T03:02:09.566Z,8.60
2018-12-09T03:04:39.855Z,8.60
2018-12-09T03:07:08.662Z,8.60
2018-12-09T03:09:37.443Z,8.60
2018-12-09T03:12:06.315Z,8.60
2018-12-09T03:14:35.211Z,8.50
2018-12-09T03:17:04.085Z,8.30
2018-12-09T03:19:32.813Z,8.20
2018-12-09T03:22:01.666Z,8.20
2018-12-09T03:24:30.695Z,8.10
2018-12-09T03:26:59.455Z,8.00
2018-12-09T03:29:28.321Z,8.00
2018-12-09T03:31:57.045Z,8.00
2018-12-09T03:34:25.829Z,7.90
2018-12-09T03:36:54.714Z,7.90
2018-12-09T03:39:23.430Z,7.90
2018-12-09T03:41:52.218Z,7.90
2018-12-09T03:44:21.154Z,7.90
2018-12-09T03:46:50.294Z,7.90
2018-12-09T03:49:19.080Z,7.90
2018-12-09T03:51:47.870Z,7.90
2018-12-09T03:54:16.605Z,7.80
2018-12-09T03:56:45.866Z,7.80
2018-12-09T03:59:14.642Z,7.80
2018-12-09T04:01:43.966Z,7.80
2018-12-09T04:04:12.822Z,7.80
2018-12-09T04:06:41.480Z,7.80
2018-12-09T04:09:10.624Z,7.90
2018-12-09T04:11:40.337Z,7.90
2018-12-09T04:14:09.129Z,7.80
2018-12-09T04:16:37.917Z,7.90
2018-12-09T04:19:06.702Z,7.90
2018-12-09T04:21:35.660Z,7.90
2018-12-09T04:24:04.346Z,7.90
2018-12-09T04:26:33.154Z,7.80
2018-12-09T04:29:01.960Z,7.80
2018-12-09T04:31:30.929Z,7.90
2018-12-09T04:33:59.703Z,7.90
2018-12-09T04:36:28.509Z,7.90
2018-12-09T04:38:57.286Z,7.90
2018-12-09T04:41:26.071Z,7.80
2018-12-09T04:43:55.044Z,7.80
2018-12-09T04:46:23.782Z,7.90
2018-12-09T04:48:52.518Z,7.90
2018-12-09T04:51:21.334Z,7.90
2018-12-09T04:53:50.058Z,7.90
2018-12-09T04:56:18.953Z,8.00
2018-12-09T04:59:02.667Z,8.00
2018-12-09T05:01:31.455Z,8.00
2018-12-09T05:04:00.381Z,8.00
2018-12-09T05:06:29.098Z,8.10
2018-12-09T05:08:57.844Z,8.10
2018-12-09T05:11:26.550Z,8.10
2018-12-09T05:13:55.270Z,8.10
2018-12-09T05:16:24.142Z,8.10
2018-12-09T05:18:52.994Z,8.10
2018-12-09T05:21:21.751Z,8.10
2018-12-09T05:23:50.543Z,8.10
2018-12-09T05:26:19.297Z,8.10
2018-12-09T05:28:48.187Z,8.10
2018-12-09T05:31:17.040Z,8.20
2018-12-09T05:33:45.799Z,8.20
2018-12-09T05:36:14.646Z,8.20
2018-12-09T05:38:43.682Z,8.20
2018-12-09T05:41:12.554Z,8.20
2018-12-09T05:43:41.757Z,8.20
2018-12-09T05:46:10.622Z,8.20
2018-12-09T05:48:39.427Z,8.20
2018-12-09T05:51:08.154Z,8.20
2018-12-09T05:53:37.905Z,8.20
2018-12-09T05:56:06.830Z,8.20
2018-12-09T05:58:35.585Z,8.20
2018-12-09T06:01:04.450Z,8.20
2018-12-09T06:03:33.130Z,8.30
2018-12-09T06:06:02.102Z,8.30
2018-12-09T06:08:30.893Z,8.20
2018-12-09T06:10:59.610Z,8.20
2018-12-09T06:13:28.694Z,8.20
2018-12-09T06:15:57.363Z,8.20
2018-12-09T06:18:26.399Z,8.20
2018-12-09T06:20:55.182Z,8.20
2018-12-09T06:23:23.838Z,8.10
2018-12-09T06:25:52.574Z,8.10
2018-12-09T06:28:21.353Z,8.00
2018-12-09T06:30:50.114Z,7.90
2018-12-09T06:33:18.853Z,7.90
2018-12-09T06:35:47.626Z,7.80
2018-12-09T06:38:16.354Z,7.70
2018-12-09T06:40:45.225Z,7.70
2018-12-09T06:43:14.058Z,7.70
2018-12-09T06:45:42.898Z,7.70
2018-12-09T06:48:12.820Z,7.70
2018-12-09T06:50:42.569Z,7.60
2018-12-09T06:53:11.405Z,7.60
2018-12-09T06:55:40.231Z,7.70
2018-12-09T06:58:09.300Z,7.70
2018-12-09T07:00:38.296Z,7.70
2018-12-09T07:03:07.086Z,7.80
2018-12-09T07:05:35.892Z,7.70
2018-12-09T07:08:04.758Z,7.70
2018-12-09T07:10:33.610Z,7.60
2018-12-09T07:13:02.499Z,7.60
2018-12-09T07:15:31.347Z,7.60
2018-12-09T07:18:00.065Z,7.60
2018-12-09T07:20:28.910Z,7.60
2018-12-09T07:22:57.655Z,7.50
2018-12-09T07:25:26.721Z,7.50
2018-12-09T07:27:55.495Z,7.50
2018-12-09T07:30:24.426Z,7.50
2018-12-09T07:32:53.326Z,7.40
2018-12-09T07:35:22.182Z,7.30
2018-12-09T07:37:50.863Z,7.20
2018-12-09T07:40:19.606Z,7.30
2018-12-09T07:42:48.271Z,7.30
2018-12-09T07:45:16.995Z,7.20
2018-12-09T07:47:46.019Z,7.20
2018-12-09T07:50:14.795Z,7.10
2018-12-09T07:52:43.756Z,7.20
2018-12-09T07:55:13.405Z,7.10
2018-12-09T07:57:43.318Z,7.10
2018-12-09T08:00:12.711Z,7.10
2018-12-09T08:02:41.425Z,7.10
2018-12-09T08:05:10.146Z,7.10
2018-12-09T08:07:38.825Z,7.10
2018-12-09T08:10:07.571Z,7.10
2018-12-09T08:12:36.237Z,7.10
2018-12-09T08:15:05.577Z,7.10
2018-12-09T08:17:34.356Z,7.10
2018-12-09T08:20:03.210Z,7.10
2018-12-09T08:22:31.961Z,7.10
2018-12-09T08:25:00.871Z,7.10
2018-12-09T08:27:29.595Z,7.10
2018-12-09T08:29:58.327Z,7.00
2018-12-09T08:32:27.061Z,7.00
2018-12-09T08:34:55.782Z,7.00
2018-12-09T08:37:24.532Z,7.00
2018-12-09T08:39:53.290Z,7.00
2018-12-09T08:42:21.947Z,7.00
2018-12-09T08:44:50.713Z,7.00
2018-12-09T08:47:19.426Z,6.90
2018-12-09T08:49:48.129Z,7.00
2018-12-09T08:52:16.855Z,7.00
2018-12-09T08:54:46.685Z,7.00
2018-12-09T08:57:15.417Z,7.00
2018-12-09T08:59:45.311Z,7.00
2018-12-09T09:02:14.486Z,7.10
2018-12-09T09:04:43.152Z,7.10
2018-12-09T09:07:11.837Z,7.10
2018-12-09T09:09:40.582Z,7.00
2018-12-09T09:12:09.390Z,7.00
2018-12-09T09:14:38.118Z,7.10
2018-12-09T09:17:06.950Z,7.00
2018-12-09T09:19:35.904Z,7.10
2018-12-09T09:22:04.710Z,7.00
2018-12-09T09:24:33.902Z,7.00
2018-12-09T09:27:03.298Z,7.10
2018-12-09T09:29:32.004Z,7.00
2018-12-09T09:32:00.766Z,7.00
2018-12-09T09:34:29.483Z,6.90
2018-12-09T09:36:58.690Z,6.90
2018-12-09T09:39:27.750Z,6.90
2018-12-09T09:41:57.146Z,7.00
2018-12-09T09:44:26.952Z,7.00
2018-12-09T09:46:56.078Z,7.00
2018-12-09T09:49:25.092Z,7.00
2018-12-09T09:51:54.565Z,7.00
2018-12-09T09:54:23.391Z,7.00
2018-12-09T09:56:52.166Z,6.90
2018-12-09T09:59:21.289Z,6.90
2018-12-09T10:01:50.693Z,6.90
2018-12-09T10:04:20.551Z,6.90
2018-12-09T10:06:49.317Z,7.00
2018-12-09T10:09:18.142Z,7.00
2018-12-09T10:11:47.310Z,7.00
2018-12-09T10:14:16.328Z,7.00
2018-12-09T10:16:45.730Z,7.10
2018-12-09T10:19:14.398Z,7.20
2018-12-09T10:21:43.203Z,7.20
2018-12-09T10:24:11.869Z,7.20
2018-12-09T10:26:40.539Z,7.20
2018-12-09T10:29:09.644Z,7.10
2018-12-09T10:31:38.411Z,7.10
2018-12-09T10:34:07.163Z,7.20
2018-12-09T10:36:35.958Z,7.30
2018-12-09T10:39:06.871Z,7.30
2018-12-09T10:41:35.725Z,7.40
2018-12-09T10:44:04.674Z,7.50
2018-12-09T10:46:33.835Z,7.50
2018-12-09T10:49:02.865Z,7.50
2018-12-09T10:51:32.008Z,7.50
2018-12-09T10:54:01.411Z,7.50
2018-12-09T10:56:30.810Z,7.40
2018-12-09T10:58:59.766Z,7.60
2018-12-09T11:01:34.706Z,7.60
2018-12-09T11:04:04.399Z,7.70
2018-12-09T11:06:34.142Z,7.70
2018-12-09T11:09:04.477Z,7.70
2018-12-09T11:11:35.012Z,7.70
2018-12-09T11:14:04.150Z,7.70
2018-12-09T11:16:33.014Z,7.70
2018-12-09T11:19:01.715Z,7.70
2018-12-09T11:21:30.962Z,7.60
2018-12-09T11:23:59.802Z,7.60
2018-12-09T11:26:28.614Z,7.70
2018-12-09T11:29:01.138Z,7.90
2018-12-09T11:31:30.038Z,8.10
2018-12-09T11:33:58.931Z,8.10
2018-12-09T11:36:27.807Z,8.20
2018-12-09T11:38:56.477Z,8.00
2018-12-09T11:41:25.236Z,8.00
2018-12-09T11:43:54.059Z,7.90
2018-12-09T11:46:24.463Z,7.80
2018-12-09T11:48:53.563Z,7.80
2018-12-09T11:51:22.518Z,7.90
2018-12-09T11:53:51.582Z,7.90
2018-12-09T11:56:21.056Z,7.90
2018-12-09T11:58:50.432Z,8.00
2018-12-09T12:01:19.903Z,8.10
2018-12-09T12:03:49.354Z,8.10
2018-12-09T12:06:18.798Z,8.10
2018-12-09T12:08:48.270Z,8.10
2018-12-09T12:11:18.478Z,8.10
2018-12-09T12:13:47.901Z,8.10
2018-12-09T12:16:18.496Z,8.00
2018-12-09T12:18:47.933Z,8.00
2018-12-09T12:21:18.239Z,8.10
2018-12-09T12:23:48.884Z,8.10
2018-12-09T12:26:20.284Z,8.10
2018-12-09T12:28:49.738Z,8.20
2018-12-09T12:31:20.380Z,8.20
2018-12-09T12:33:49.756Z,8.30
2018-12-09T12:36:19.231Z,8.30
2018-12-09T12:38:48.668Z,8.40
2018-12-09T12:41:18.446Z,8.40
2018-12-09T12:43:48.367Z,8.40
2018-12-09T12:46:19.354Z,8.40
2018-12-09T12:48:48.826Z,8.40
2018-12-09T12:51:19.154Z,8.30
2018-12-09T12:53:49.604Z,8.20
2018-12-09T12:56:20.403Z,8.10
2018-12-09T12:58:49.742Z,8.10
2018-12-09T13:01:19.794Z,8.20
2018-12-09T13:03:49.085Z,8.20
2018-12-09T13:06:19.599Z,8.20
2018-12-09T13:08:48.985Z,8.20
2018-12-09T13:11:18.666Z,8.20
2018-12-09T13:19:37.299Z,8.30
2018-12-09T13:22:06.741Z,8.40
2018-12-09T13:24:36.176Z,8.40
2018-12-09T13:27:05.920Z,8.40
2018-12-09T13:29:35.386Z,8.40
2018-12-09T13:32:04.726Z,8.40
2018-12-09T13:34:34.245Z,8.50
2018-12-09T13:37:03.234Z,8.50
2018-12-09T13:39:32.678Z,8.40
2018-12-09T13:42:02.114Z,8.50
2018-12-09T13:44:31.562Z,8.50
2018-12-09T13:47:00.616Z,8.50
2018-12-09T13:49:29.633Z,8.40
2018-12-09T13:51:59.091Z,8.40
2018-12-09T13:54:28.514Z,8.20
2018-12-09T13:56:59.119Z,8.10
2018-12-09T13:59:28.557Z,8.10
2018-12-09T14:01:57.590Z,8.10
2018-12-09T14:04:27.034Z,8.00
2018-12-09T14:06:56.000Z,7.90
2018-12-09T14:09:25.127Z,8.00
2018-12-09T14:11:54.468Z,7.90
2018-12-09T14:14:24.724Z,7.90
2018-12-09T14:16:54.314Z,8.00
2018-12-09T14:19:23.454Z,7.90
2018-12-09T14:21:53.315Z,7.80
2018-12-09T14:24:22.762Z,7.80
2018-12-09T14:26:51.819Z,7.70
2018-12-09T14:29:20.739Z,7.70
2018-12-09T14:31:49.981Z,7.60
2018-12-09T14:34:19.447Z,7.60
2018-12-09T14:36:48.102Z,7.60
2018-12-09T14:39:17.315Z,7.60
2018-12-09T14:41:46.751Z,7.70
2018-12-09T14:44:16.151Z,7.70
2018-12-09T14:46:45.849Z,7.70
2018-12-09T14:49:14.943Z,7.70
2018-12-09T14:51:43.898Z,7.70
2018-12-09T14:54:12.686Z,7.70
2018-12-09T14:56:42.942Z,7.60
2018-12-09T14:59:11.652Z,7.60
2018-12-09T15:01:40.582Z,7.60
2018-12-09T15:04:09.854Z,7.60
2018-12-09T15:06:39.243Z,7.70
2018-12-09T15:09:08.675Z,7.60
2018-12-09T15:11:38.107Z,7.70
2018-12-09T15:14:07.435Z,7.70
2018-12-09T15:16:36.935Z,7.70
2018-12-09T15:19:07.104Z,7.70
2018-12-09T15:21:36.536Z,7.70
2018-12-09T15:24:05.894Z,7.70
2018-12-09T15:26:35.295Z,7.70
2018-12-09T15:29:04.682Z,7.70
2018-12-09T15:31:33.724Z,7.60
2018-12-09T15:34:04.905Z,7.70
2018-12-09T15:36:35.094Z,7.70
2018-12-09T15:39:06.390Z,7.70
2018-12-09T15:41:37.924Z,7.70
2018-12-09T15:44:07.979Z,7.70
2018-12-09T15:46:37.903Z,7.70
2018-12-09T15:49:08.948Z,7.70
2018-12-09T15:51:38.145Z,7.70
2018-12-09T15:54:07.969Z,7.70
2018-12-09T15:56:37.426Z,7.70
2018-12-09T15:59:06.453Z,7.70
2018-12-09T16:01:35.832Z,7.70
2018-12-09T16:04:05.198Z,7.70
2018-12-09T16:06:34.642Z,7.70
2018-12-09T16:09:06.083Z,7.70
2018-12-09T16:11:35.423Z,7.70
2018-12-09T16:14:04.874Z,7.70
2018-12-09T16:16:35.471Z,7.70
2018-12-09T16:19:05.253Z,7.70
2018-12-09T16:21:35.939Z,7.70
2018-12-09T16:24:06.521Z,7.70
2018-12-09T16:26:36.301Z,7.70
2018-12-09T16:29:05.693Z,7.70
2018-12-09T16:31:35.937Z,7.80
2018-12-09T16:34:05.662Z,7.70
2018-12-09T16:36:35.135Z,7.70
2018-12-09T16:39:06.609Z,7.70
2018-12-09T16:41:35.949Z,7.70
2018-12-09T16:44:05.427Z,7.80
2018-12-09T16:46:34.767Z,7.70
2018-12-09T16:49:04.662Z,7.70
2018-12-09T16:51:34.802Z,7.80
2018-12-09T16:54:07.445Z,7.70
2018-12-09T16:56:37.211Z,7.70
2018-12-09T16:59:06.714Z,7.80
2018-12-09T17:01:36.469Z,7.70
2018-12-09T17:04:06.168Z,7.70
2018-12-09T17:06:35.994Z,7.70
2018-12-09T17:09:07.082Z,7.60
2018-12-09T17:11:37.019Z,7.70
2018-12-09T17:14:05.898Z,7.60
2018-12-09T17:16:34.789Z,7.60
2018-12-09T17:19:04.274Z,7.60
2018-12-09T17:21:34.089Z,7.60
2018-12-09T17:24:04.717Z,7.70
2018-12-09T17:26:34.018Z,7.60
2018-12-09T17:29:10.597Z,7.60
2018-12-09T17:31:44.903Z,7.70
2018-12-09T17:34:15.082Z,7.60
2018-12-09T17:36:46.502Z,7.60
2018-12-09T17:39:15.940Z,7.50
2018-12-09T17:41:46.405Z,7.50
2018-12-09T17:44:22.292Z,7.50
2018-12-09T17:46:51.295Z,7.50
2018-12-09T17:49:20.126Z,7.50
2018-12-09T17:51:48.922Z,7.50
2018-12-09T17:54:18.346Z,7.50
2018-12-09T17:56:47.805Z,7.40
2018-12-09T17:59:16.854Z,7.40
2018-12-09T18:01:45.731Z,7.40
2018-12-09T18:04:15.590Z,7.40
2018-12-09T18:06:44.406Z,7.40
2018-12-09T18:09:15.064Z,7.40
2018-12-09T18:11:44.823Z,7.40
2018-12-09T18:14:13.777Z,7.40
2018-12-09T18:16:42.551Z,7.40
2018-12-09T18:19:11.470Z,7.50
2018-12-09T18:21:40.314Z,7.40
2018-12-09T18:24:09.082Z,7.40
2018-12-09T18:26:38.340Z,7.40
2018-12-09T18:29:07.198Z,7.40
2018-12-09T18:31:36.107Z,7.40
2018-12-09T18:34:04.978Z,7.40
2018-12-09T18:36:34.166Z,7.40
2018-12-09T18:39:03.970Z,7.40
2018-12-09T18:41:32.918Z,7.40
2018-12-09T18:44:01.670Z,7.40
2018-12-09T18:46:30.562Z,7.40
2018-12-09T18:48:59.359Z,7.40
2018-12-09T18:51:28.298Z,7.30
2018-12-09T18:53:57.026Z,7.30
2018-12-09T18:56:26.081Z,7.30
2018-12-09T18:58:54.879Z,7.30
2018-12-09T19:01:24.632Z,7.30
2018-12-09T19:03:54.767Z,7.30
2018-12-09T19:06:27.055Z,7.30
2018-12-09T19:08:56.222Z,7.20
2018-12-09T19:11:25.112Z,7.30
2018-12-09T19:13:54.926Z,7.30
2018-12-09T19:16:24.955Z,7.30
2018-12-09T19:21:31.993Z,7.30
2018-12-09T19:24:00.681Z,7.30
2018-12-09T19:26:30.594Z,7.20
2018-12-09T19:28:59.441Z,7.30
2018-12-09T19:31:28.167Z,7.20
2018-12-09T19:33:56.886Z,7.20
2018-12-09T19:36:25.534Z,7.20
2018-12-09T19:38:54.983Z,7.30
2018-12-09T19:41:23.690Z,7.30
2018-12-09T19:43:52.408Z,7.30
2018-12-09T19:46:21.134Z,7.30
2018-12-09T19:48:49.939Z,7.20
2018-12-09T19:51:18.785Z,7.20
2018-12-09T19:53:47.819Z,7.20
2018-12-09T19:56:16.609Z,7.20
2018-12-09T19:58:45.294Z,7.20
2018-12-09T20:01:14.081Z,7.10
2018-12-09T20:03:42.821Z,7.20
2018-12-09T20:06:12.133Z,7.10
2018-12-09T20:08:41.166Z,7.10
2018-12-09T20:11:09.980Z,7.10
2018-12-09T20:13:38.651Z,7.00
2018-12-09T20:16:07.417Z,7.00
2018-12-09T20:18:37.222Z,6.90
2018-12-09T20:21:05.924Z,6.90
2018-12-09T20:23:35.082Z,6.90
2018-12-09T20:26:03.857Z,6.90
2018-12-09T20:28:32.974Z,6.80
2018-12-09T20:31:01.641Z,6.80
2018-12-09T20:33:30.346Z,6.80
2018-12-09T20:35:59.169Z,6.80
2018-12-09T20:38:27.900Z,6.70
2018-12-09T20:40:56.641Z,6.70
2018-12-09T20:43:26.130Z,6.70
2018-12-09T20:45:55.200Z,6.70
2018-12-09T20:48:23.953Z,6.70
2018-12-09T20:50:52.619Z,6.60
2018-12-09T20:53:21.597Z,6.70
2018-12-09T20:55:50.355Z,6.70
2018-12-09T20:58:19.069Z,6.70
2018-12-09T21:00:47.854Z,6.60
2018-12-09T21:03:16.605Z,6.60
2018-12-09T21:05:45.597Z,6.60
2018-12-09T21:08:14.391Z,6.50
2018-12-09T21:10:43.177Z,6.50
2018-12-09T21:13:12.044Z,6.60
2018-12-09T21:15:40.811Z,6.60
2018-12-09T21:18:09.555Z,6.60
2018-12-09T21:20:38.294Z,6.60
2018-12-09T21:23:07.034Z,6.60
2018-12-09T21:25:36.842Z,6.50
2018-12-09T21:28:06.328Z,6.50
2018-12-09T21:30:35.450Z,6.40
2018-12-09T21:33:04.608Z,6.50
2018-12-09T21:35:33.338Z,6.40
2018-12-09T21:38:02.027Z,6.40
2018-12-09T21:40:30.737Z,6.30
2018-12-09T21:42:59.397Z,6.30
2018-12-09T21:45:28.100Z,6.30
2018-12-09T21:47:56.885Z,6.30
2018-12-09T21:50:25.640Z,6.30
2018-12-09T21:52:54.378Z,6.30
2018-12-09T21:55:23.067Z,6.40
2018-12-09T21:57:51.878Z,6.30
2018-12-09T22:00:21.670Z,6.30
2018-12-09T22:02:50.450Z,6.30
2018-12-09T22:05:19.177Z,6.30
2018-12-09T22:07:47.829Z,6.40
2018-12-09T22:10:17.094Z,6.40
2018-12-09T22:12:46.097Z,6.40
2018-12-09T22:15:14.858Z,6.40
2018-12-09T22:17:43.922Z,6.40
2018-12-09T22:20:12.982Z,6.30
2018-12-09T22:22:41.736Z,6.30
2018-12-09T22:25:10.525Z,6.20
2018-12-09T22:27:39.162Z,6.30
2018-12-09T22:30:08.008Z,6.20
2018-12-09T22:32:36.799Z,6.20
2018-12-09T22:35:06.288Z,6.10
2018-12-09T22:37:35.106Z,6.00
2018-12-09T22:40:04.533Z,6.00
2018-12-09T22:42:33.505Z,5.90
2018-12-09T22:45:02.278Z,5.90
2018-12-09T22:47:30.913Z,5.90
2018-12-09T22:49:59.775Z,5.90
2018-12-09T22:52:28.508Z,5.90
2018-12-09T22:54:57.218Z,5.90
2018-12-09T22:57:25.986Z,5.90
2018-12-09T22:59:54.943Z,5.90
2018-12-09T23:02:29.015Z,5.90
2018-12-09T23:04:57.837Z,5.90
2018-12-09T23:07:31.961Z,5.80
2018-12-09T23:10:00.661Z,5.80
2018-12-09T23:12:29.501Z,5.90
2018-12-09T23:14:58.323Z,5.80
2018-12-09T23:17:27.268Z,5.90
2018-12-09T23:19:56.109Z,5.90
2018-12-09T23:22:24.805Z,5.90
2018-12-09T23:24:53.623Z,5.90
2018-12-09T23:27:22.736Z,5.90
2018-12-09T23:29:51.530Z,5.90
2018-12-09T23:32:20.312Z,5.90
2018-12-09T23:34:49.091Z,5.90
2018-12-09T23:37:17.936Z,5.90
2018-12-09T23:39:46.655Z,5.80
2018-12-09T23:42:15.397Z,5.80
2018-12-09T23:44:44.110Z,5.90
2018-12-09T23:47:12.831Z,5.90
2018-12-09T23:49:41.521Z,5.90
2018-12-09T23:52:10.247Z,5.90
2018-12-09T23:54:39.036Z,5.90
2018-12-09T23:57:07.886Z,5.90
2018-12-09T23:59:36.645Z,5.90
